Thursday, September 20, 2018, 8:56 PM GMT
Back to Local

CWTY, Trois Rivieres

Location: , , Canada Lat: 46.35
Local Time: 8:56 PM GMT (20:56 GMT) Lon: -72.517
Time Zone: GMT Elev: 19 ft

Show me the last for .
Show Coded

Time T Td Feel RH Dir Speed Gust Alt SLP Vis Weather Sky Remarks
2018-09-20 20:00 62 48 - 59 150° 1 - - 30.22 0 None
2018-09-20 19:00 63 49 - 60 300° 1 - - 30.24 0 None
2018-09-20 18:00 60 51 - 71 60° 2 - - 30.24 0 None
2018-09-20 17:00 58 49 - 71 120° 3 - - 30.24 0 None
2018-09-20 16:00 58 49 - 71 50° 5 - - 30.25 0 None
2018-09-20 15:00 56 52 - 83 70° 7 - - 30.25 0 None
2018-09-20 14:00 55 49 - 81 90° 2 - - 30.28 0 None
2018-09-20 13:00 53 50 - 88 90° 6 - - 30.27 0 None
2018-09-20 12:00 52 49 - 88 10° 5 - - 30.24 0 None
2018-09-20 11:00 52 49 - 90 10° 5 - - 30.22 0 None
2018-09-20 10:00 52 49 - 91 10° 5 - - 30.21 0 None
2018-09-20 09:00 51 49 - 92 360° 5 - - 30.19 0 None
2018-09-20 08:00 50 49 47 96 70° 7 - - 30.18 0 None
2018-09-20 07:00 52 50 - 93 80° 12 - - 30.18 0 None
2018-09-20 06:00 52 49 - 89 10° 5 - - 30.18 0 None
2018-09-20 05:00 53 50 - 89 70° 10 - - 30.16 0 None
2018-09-20 04:00 53 50 - 88 70° 13 - - 30.16 0 None
2018-09-20 03:00 54 49 - 84 60° 14 - - 30.18 0 Peak wind: 19 mph (17 kts) from 70° at 39 min
2018-09-20 02:00 55 50 - 82 20° 7 - - 30.16 0 None
2018-09-20 01:00 55 49 - 80 360° 6 - - 30.15 0 None
2018-09-20 00:00 57 50 - 77 340° 5 - - 30.13 0 None
2018-09-19 23:00 58 49 - 72 330° 5 - - 30.11 0 None
2018-09-19 22:00 59 50 - 71 360° 3 - - 30.10 0 None
2018-09-19 21:00 59 50 - 72 30° 3 - - 30.09 0 None

Support USWX by starting your Amazon purchase here.